createdAt,value
2016-06-27T00:00:19.827Z,14.92
2016-06-27T00:01:20.468Z,14.88
2016-06-27T00:02:34.758Z,14.91
2016-06-27T00:03:20.510Z,14.86
2016-06-27T00:04:19.322Z,14.78
2016-06-27T00:05:19.359Z,14.8
2016-06-27T00:06:19.988Z,14.81
2016-06-27T00:07:20.002Z,14.8
2016-06-27T00:08:20.024Z,14.75
2016-06-27T00:09:20.054Z,14.84
2016-06-27T00:10:20.071Z,14.91
2016-06-27T00:11:20.110Z,15.03
2016-06-27T00:12:20.125Z,15.03
2016-06-27T00:13:20.152Z,15.16
2016-06-27T00:15:20.806Z,14.98
2016-06-27T00:16:19.617Z,15.06
2016-06-27T00:17:20.248Z,14.99
2016-06-27T00:18:34.551Z,15.02
2016-06-27T00:20:20.935Z,14.8
2016-06-27T00:21:20.347Z,14.88
2016-06-27T00:22:34.643Z,15.02
2016-06-27T00:23:19.802Z,15.03
2016-06-27T00:24:21.029Z,15.14
2016-06-27T00:25:21.054Z,15.16
2016-06-27T00:26:20.475Z,15.25
2016-06-27T00:27:20.506Z,15.23
2016-06-27T00:28:20.521Z,15.28
2016-06-27T00:29:19.930Z,15.23
2016-06-27T00:30:20.575Z,15.09
2016-06-27T00:31:21.213Z,15.03
2016-06-27T00:32:20.013Z,15.01
2016-06-27T00:34:34.942Z,14.81
2016-06-27T00:35:20.693Z,14.88
2016-06-27T00:36:20.725Z,14.84
2016-06-27T00:37:20.132Z,14.94
2016-06-27T00:38:20.173Z,14.95
2016-06-27T00:39:21.423Z,15.01
2016-06-27T00:40:21.434Z,15.11
2016-06-27T00:41:20.861Z,15.14
2016-06-27T00:42:20.267Z,15.07
2016-06-27T00:43:20.906Z,15.14
2016-06-27T00:44:20.327Z,14.99
2016-06-27T00:45:21.548Z,15.06
2016-06-27T00:46:20.365Z,15.06
2016-06-27T00:47:21.609Z,14.95
2016-06-27T00:48:20.406Z,14.81
2016-06-27T00:49:35.929Z,14.78
2016-06-27T00:50:35.343Z,14.7
2016-06-27T00:51:20.483Z,14.69
2016-06-27T00:52:35.386Z,14.68
2016-06-27T00:53:35.412Z,14.75
2016-06-27T00:54:20.553Z,14.83
2016-06-27T00:55:21.806Z,14.64
2016-06-27T00:56:21.224Z,14.73
2016-06-27T00:57:21.248Z,14.68
2016-06-27T00:59:20.681Z,14.62
2016-06-27T01:00:20.714Z,14.58
2016-06-27T01:02:20.760Z,14.58
2016-06-27T01:04:21.423Z,14.47
2016-06-27T01:05:22.050Z,14.52
2016-06-27T01:06:20.855Z,14.47
2016-06-27T01:07:20.910Z,14.47
2016-06-27T01:08:22.138Z,14.47
2016-06-27T01:09:21.547Z,14.43
2016-06-27T01:10:21.579Z,14.43
2016-06-27T01:11:22.206Z,14.4
2016-06-27T01:12:22.232Z,14.4
2016-06-27T01:13:21.039Z,14.4
2016-06-27T01:14:21.667Z,14.51
2016-06-27T01:15:21.689Z,14.58
2016-06-27T01:17:36.011Z,14.64
2016-06-27T01:18:22.364Z,14.57
2016-06-27T01:19:21.791Z,14.68
2016-06-27T01:20:21.824Z,14.64
2016-06-27T01:21:36.724Z,14.68
2016-06-27T01:22:21.857Z,14.68
2016-06-27T01:23:21.902Z,14.83
2016-06-27T01:24:21.916Z,14.73
2016-06-27T01:25:21.953Z,14.61
2016-06-27T01:26:21.374Z,14.72
2016-06-27T01:27:21.398Z,14.68
2016-06-27T01:28:22.000Z,14.55
2016-06-27T01:29:22.058Z,14.64
2016-06-27T01:30:22.063Z,14.47
2016-06-27T01:32:21.505Z,14.37
2016-06-27T01:33:22.152Z,14.4
2016-06-27T01:34:22.775Z,14.43
2016-06-27T01:35:22.181Z,14.36
2016-06-27T01:36:36.480Z,14.24
2016-06-27T01:37:37.109Z,14.24
2016-06-27T01:39:22.902Z,14.32
2016-06-27T01:40:22.321Z,14.36
2016-06-27T01:41:22.352Z,14.32
2016-06-27T01:42:21.748Z,14.32
2016-06-27T01:43:22.996Z,14.36
2016-06-27T01:44:21.797Z,14.32
2016-06-27T01:45:22.443Z,14.21
2016-06-27T01:46:22.480Z,14.2
2016-06-27T01:47:23.084Z,14.18
2016-06-27T01:48:21.898Z,14.27
2016-06-27T01:49:23.181Z,14.18
2016-06-27T01:50:23.164Z,14.14
2016-06-27T01:51:37.458Z,14.04
2016-06-27T01:52:22.604Z,14.07
2016-06-27T01:53:36.907Z,14.2
2016-06-27T01:54:37.533Z,14.15
2016-06-27T01:55:23.290Z,14.04
2016-06-27T01:56:22.095Z,14.06
2016-06-27T01:57:22.119Z,14.07
2016-06-27T01:58:23.358Z,14.06
2016-06-27T01:59:22.171Z,14.09
2016-06-27T02:00:22.797Z,14.07
2016-06-27T02:02:22.861Z,14.15
2016-06-27T02:03:37.758Z,14.17
2016-06-27T02:04:22.914Z,14.17
2016-06-27T02:05:23.557Z,14.12
2016-06-27T02:06:22.938Z,14.17
2016-06-27T02:07:23.593Z,14.33
2016-06-27T02:08:23.836Z,14.45
2016-06-27T02:09:37.907Z,14.51
2016-06-27T02:10:22.443Z,14.52
2016-06-27T02:11:23.683Z,14.64
2016-06-27T02:12:23.084Z,14.52
2016-06-27T02:13:23.120Z,14.65
2016-06-27T02:14:23.159Z,14.64
2016-06-27T02:15:23.180Z,14.6
2016-06-27T02:16:22.581Z,14.47
2016-06-27T02:17:23.217Z,14.6
2016-06-27T02:18:22.633Z,14.62
2016-06-27T02:19:23.264Z,14.52
2016-06-27T02:20:23.947Z,14.62
2016-06-27T02:22:22.731Z,14.62
2016-06-27T02:24:38.271Z,14.5
2016-06-27T02:25:23.426Z,14.61
2016-06-27T02:26:22.819Z,14.52
2016-06-27T02:27:23.463Z,14.54
2016-06-27T02:29:23.528Z,14.51
2016-06-27T02:30:23.540Z,14.47
2016-06-27T02:31:23.586Z,14.52
2016-06-27T02:32:24.200Z,14.5
2016-06-27T02:33:24.221Z,14.52
2016-06-27T02:34:23.644Z,14.52
2016-06-27T02:35:23.056Z,14.61
2016-06-27T02:36:23.077Z,14.6
2016-06-27T02:37:24.314Z,14.6
2016-06-27T02:38:23.786Z,14.64
2016-06-27T02:39:24.366Z,14.51
2016-06-27T02:40:38.054Z,14.62
2016-06-27T02:41:23.207Z,14.65
2016-06-27T02:42:23.232Z,14.73
2016-06-27T02:43:23.256Z,14.83
2016-06-27T02:44:24.493Z,14.92
2016-06-27T02:45:23.295Z,14.96
2016-06-27T02:46:23.945Z,15.1
2016-06-27T02:49:24.617Z,15.34
2016-06-27T02:50:24.028Z,15.31
2016-06-27T02:51:23.449Z,15.39
2016-06-27T02:52:24.697Z,15.51
2016-06-27T02:53:24.101Z,15.67
2016-06-27T02:54:23.513Z,15.71
2016-06-27T02:55:24.159Z,15.74
2016-06-27T02:56:38.446Z,15.86
2016-06-27T02:57:24.226Z,15.86
2016-06-27T02:58:24.236Z,15.9
2016-06-27T02:59:23.647Z,15.96
2016-06-27T03:00:24.887Z,15.96
2016-06-27T03:01:24.311Z,16.01
2016-06-27T03:02:23.736Z,16.04
2016-06-27T03:03:24.980Z,16.17
2016-06-27T03:04:24.378Z,16.31
2016-06-27T03:05:24.407Z,16.2
2016-06-27T03:06:24.433Z,16.28
2016-06-27T03:07:24.477Z,16.31
2016-06-27T03:08:23.862Z,16.27
2016-06-27T03:09:23.889Z,16.35
2016-06-27T03:10:25.131Z,16.39
2016-06-27T03:12:39.460Z,16.27
2016-06-27T03:15:24.643Z,16.35
2016-06-27T03:16:24.055Z,16.41
2016-06-27T03:17:24.112Z,16.35
2016-06-27T03:18:39.596Z,16.33
2016-06-27T03:19:24.753Z,16.35
2016-06-27T03:20:25.374Z,16.31
2016-06-27T03:21:24.823Z,16.43
2016-06-27T03:22:24.831Z,16.41
2016-06-27T03:23:24.255Z,16.34
2016-06-27T03:24:24.295Z,16.39
2016-06-27T03:25:24.278Z,16.33
2016-06-27T03:26:39.800Z,16.3
2016-06-27T03:27:25.577Z,16.38
2016-06-27T03:28:39.243Z,16.3
2016-06-27T03:29:25.019Z,16.31
2016-06-27T03:30:24.443Z,16.3
2016-06-27T03:32:24.470Z,16.25
2016-06-27T03:33:25.718Z,16.31
2016-06-27T03:35:25.759Z,16.17
2016-06-27T03:36:25.790Z,16.27
2016-06-27T03:37:24.605Z,16.34
2016-06-27T03:38:25.226Z,16.27
2016-06-27T03:39:25.287Z,16.28
2016-06-27T03:40:24.661Z,16.34
2016-06-27T03:41:24.677Z,16.35
2016-06-27T03:42:25.329Z,16.3
2016-06-27T03:43:25.332Z,16.38
2016-06-27T03:44:40.257Z,16.33
2016-06-27T03:45:24.784Z,16.46
2016-06-27T03:46:25.411Z,16.35
2016-06-27T03:48:24.860Z,16.43
2016-06-27T03:49:25.483Z,16.49
2016-06-27T03:50:25.507Z,16.45
2016-06-27T03:51:25.551Z,16.46
2016-06-27T03:52:25.556Z,16.42
2016-06-27T03:53:26.212Z,16.41
2016-06-27T03:54:25.620Z,16.33
2016-06-27T03:55:26.250Z,16.38
2016-06-27T03:56:25.663Z,16.43
2016-06-27T03:57:25.090Z,16.28
2016-06-27T03:58:25.099Z,16.31
2016-06-27T03:59:40.013Z,16.49
2016-06-27T04:00:40.643Z,16.48
2016-06-27T04:01:26.421Z,16.53
2016-06-27T04:02:25.852Z,16.6
2016-06-27T04:03:40.106Z,16.68
2016-06-27T04:04:25.875Z,16.76
2016-06-27T04:05:25.886Z,16.78
2016-06-27T04:06:26.549Z,16.73
2016-06-27T04:07:26.546Z,16.73
2016-06-27T04:08:25.370Z,16.79
2016-06-27T04:09:26.620Z,16.86
2016-06-27T04:11:25.517Z,17.11
2016-06-27T04:12:26.078Z,17.22
2016-06-27T04:13:26.097Z,17.22
2016-06-27T04:14:26.126Z,17.56
2016-06-27T04:15:26.748Z,18.54
2016-06-27T04:16:26.187Z,19.19
2016-06-27T04:17:26.797Z,19.91
2016-06-27T04:18:41.090Z,20.72
2016-06-27T04:19:40.514Z,21.32
2016-06-27T04:20:25.676Z,21.68
2016-06-27T04:21:26.296Z,21.99
2016-06-27T04:22:26.315Z,21.86
2016-06-27T04:23:26.353Z,21.34
2016-06-27T04:24:26.367Z,21.32
2016-06-27T04:25:26.415Z,21.58
2016-06-27T04:26:26.416Z,22.14
2016-06-27T04:27:27.067Z,22.7
2016-06-27T04:28:41.359Z,23.22
2016-06-27T04:29:25.917Z,23.46
2016-06-27T04:30:26.534Z,23.58
2016-06-27T04:31:40.825Z,23.79
2016-06-27T04:32:25.982Z,24.43
2016-06-27T04:33:26.009Z,24.31
2016-06-27T04:35:26.672Z,23.28
2016-06-27T04:36:27.312Z,23.1
2016-06-27T04:37:27.347Z,22.8
2016-06-27T04:38:26.749Z,22.54
2016-06-27T04:39:26.181Z,22.94
2016-06-27T04:40:26.814Z,23.35
2016-06-27T04:41:27.463Z,23.47
2016-06-27T04:42:26.871Z,23.28
2016-06-27T04:43:26.907Z,23.16
2016-06-27T04:44:26.366Z,22.98
2016-06-27T04:45:26.344Z,22.94
2016-06-27T04:47:41.891Z,22.37
2016-06-27T04:48:27.659Z,22.1
2016-06-27T04:49:27.065Z,22
2016-06-27T04:50:27.104Z,21.82
2016-06-27T04:51:27.725Z,21.84
2016-06-27T04:52:27.154Z,21.83
2016-06-27T04:53:26.571Z,21.47
2016-06-27T04:54:27.226Z,21.34
2016-06-27T04:55:27.847Z,21.5
2016-06-27T04:56:42.153Z,21.42
2016-06-27T04:57:27.297Z,21.4
2016-06-27T04:59:26.751Z,21.44
2016-06-27T05:00:27.987Z,21.34
2016-06-27T05:01:28.009Z,21.13
2016-06-27T05:02:28.036Z,21.28
2016-06-27T05:03:41.730Z,21.06
2016-06-27T05:05:27.509Z,21.25
2016-06-27T05:06:27.541Z,21.34
2016-06-27T05:07:27.582Z,21.35
2016-06-27T05:08:26.981Z,21.38
2016-06-27T05:09:27.627Z,21.01
2016-06-27T05:10:27.650Z,20.73
2016-06-27T05:11:27.672Z,20.72
2016-06-27T05:12:27.708Z,20.72
2016-06-27T05:13:28.342Z,20.8
2016-06-27T05:14:28.366Z,20.62
2016-06-27T05:15:28.406Z,20.51
2016-06-27T05:16:42.080Z,20.66
2016-06-27T05:17:27.830Z,20.85
2016-06-27T05:18:28.478Z,21.01
2016-06-27T05:19:42.777Z,21.14
2016-06-27T05:20:28.522Z,21.21
2016-06-27T05:21:27.962Z,20.99
2016-06-27T05:22:28.004Z,21.37
2016-06-27T05:23:42.883Z,21.67
2016-06-27T05:24:28.025Z,21.96
2016-06-27T05:25:28.046Z,22.03
2016-06-27T05:26:27.486Z,22.02
2016-06-27T05:27:28.713Z,22.02
2016-06-27T05:28:28.173Z,22.09
2016-06-27T05:29:28.155Z,21.96
2016-06-27T05:30:28.220Z,21.86
2016-06-27T05:31:28.227Z,21.83
2016-06-27T05:32:43.124Z,21.29
2016-06-27T05:33:28.274Z,21.21
2016-06-27T05:34:42.566Z,21.09
2016-06-27T05:35:27.722Z,20.95
2016-06-27T05:36:28.351Z,20.57
2016-06-27T05:37:28.388Z,20.62
2016-06-27T05:38:28.399Z,20.52
2016-06-27T05:39:28.438Z,20.47
2016-06-27T05:40:29.095Z,20.21
2016-06-27T05:41:42.744Z,20.29
2016-06-27T05:42:27.908Z,20.24
2016-06-27T05:43:28.542Z,20.14
2016-06-27T05:44:28.579Z,20.2
2016-06-27T05:45:29.200Z,20.36
2016-06-27T05:46:29.227Z,20.51
2016-06-27T05:47:28.655Z,20.29
2016-06-27T05:48:28.067Z,20.38
2016-06-27T05:49:28.691Z,20.47
2016-06-27T05:50:29.339Z,20.5
2016-06-27T05:51:28.746Z,20.42
2016-06-27T05:52:43.655Z,20.61
2016-06-27T05:54:28.844Z,20.59
2016-06-27T05:55:28.866Z,20.77
2016-06-27T05:56:28.893Z,20.88
2016-06-27T05:57:29.529Z,20.51
2016-06-27T05:58:28.327Z,20.29
2016-06-27T05:59:29.575Z,20.43
2016-06-27T06:00:28.994Z,20.39
2016-06-27T06:01:28.413Z,20.67
2016-06-27T06:02:28.444Z,20.69
2016-06-27T06:03:28.455Z,20.88
2016-06-27T06:04:28.501Z,20.89
2016-06-27T06:05:29.750Z,20.98
2016-06-27T06:06:44.037Z,20.94
2016-06-27T06:07:43.446Z,20.92
2016-06-27T06:08:29.822Z,20.5
2016-06-27T06:10:29.870Z,20.16
2016-06-27T06:11:28.670Z,20.35
2016-06-27T06:12:28.700Z,20.39
2016-06-27T06:13:29.339Z,20.67
2016-06-27T06:14:29.990Z,20.73
2016-06-27T06:15:30.006Z,20.87
2016-06-27T06:16:29.423Z,20.61
2016-06-27T06:17:28.841Z,20.57
2016-06-27T06:18:29.470Z,20.31
2016-06-27T06:19:28.891Z,20.18
2016-06-27T06:20:29.526Z,20.39
2016-06-27T06:21:44.432Z,20.66
2016-06-27T06:22:44.451Z,20.92
2016-06-27T06:23:29.609Z,21.07
2016-06-27T06:24:44.506Z,21.38
2016-06-27T06:25:30.273Z,21.44
2016-06-27T06:26:30.289Z,21.52
2016-06-27T06:27:29.107Z,21.49
2016-06-27T06:28:29.744Z,21.59
2016-06-27T06:29:30.368Z,21.82
2016-06-27T06:31:29.813Z,21.91
2016-06-27T06:32:29.226Z,22
2016-06-27T06:33:29.888Z,21.86
2016-06-27T06:34:44.171Z,21.92
2016-06-27T06:35:30.536Z,22.02
2016-06-27T06:36:29.350Z,22.09
2016-06-27T06:37:30.003Z,22.17
2016-06-27T06:38:44.883Z,22.17
2016-06-27T06:39:29.427Z,22.17
2016-06-27T06:40:29.441Z,22.24
2016-06-27T06:41:30.706Z,22.17
2016-06-27T06:42:30.241Z,22.07
2016-06-27T06:43:30.143Z,22.02
2016-06-27T06:44:29.555Z,22.1
2016-06-27T06:45:31.848Z,22.12
2016-06-27T06:46:45.105Z,22.24
2016-06-27T06:48:29.660Z,22.28
2016-06-27T06:49:30.297Z,22.4
2016-06-27T06:50:30.929Z,22.51
2016-06-27T06:51:44.630Z,22.33
2016-06-27T06:52:30.992Z,22.36
2016-06-27T06:53:31.010Z,22.36
2016-06-27T06:54:44.702Z,22.45
2016-06-27T06:55:29.888Z,22.12
2016-06-27T06:56:45.367Z,21.99
2016-06-27T06:57:29.894Z,22.17
2016-06-27T06:58:30.565Z,21.94
2016-06-27T06:59:30.571Z,22.02
2016-06-27T07:00:31.203Z,22.12
2016-06-27T07:01:30.622Z,22.17
2016-06-27T07:02:30.042Z,22.2
2016-06-27T07:03:30.682Z,22.24
2016-06-27T07:04:31.321Z,22.24
2016-06-27T07:05:30.121Z,21.99
2016-06-27T07:06:45.640Z,22.1
2016-06-27T07:07:30.801Z,22.24
2016-06-27T07:08:45.083Z,22.25
2016-06-27T07:09:45.106Z,22.21
2016-06-27T07:10:30.872Z,22.25
2016-06-27T07:11:31.513Z,22.27
2016-06-27T07:12:31.525Z,22.36
2016-06-27T07:13:30.337Z,22.49
2016-06-27T07:14:30.391Z,22.65
2016-06-27T07:15:30.407Z,22.68
2016-06-27T07:16:31.649Z,22.8
2016-06-27T07:17:31.712Z,22.98
2016-06-27T07:18:31.699Z,23.01
2016-06-27T07:19:31.718Z,22.8
2016-06-27T07:21:46.048Z,22.91
2016-06-27T07:23:31.838Z,22.49
2016-06-27T07:24:31.251Z,22.39
2016-06-27T07:25:31.280Z,22.73
2016-06-27T07:26:30.698Z,22.88
2016-06-27T07:27:31.331Z,23.01
2016-06-27T07:28:31.367Z,23.17
2016-06-27T07:29:30.784Z,23.38
2016-06-27T07:30:31.434Z,23.57
2016-06-27T07:31:31.442Z,23.68
2016-06-27T07:32:31.472Z,23.7
2016-06-27T07:33:31.496Z,23.72
2016-06-27T07:34:31.529Z,23.9
2016-06-27T07:35:31.547Z,23.75
2016-06-27T07:36:32.205Z,24.39
2016-06-27T07:37:31.636Z,24.71
2016-06-27T07:38:31.055Z,25.24
2016-06-27T07:39:46.547Z,25.7
2016-06-27T07:41:46.603Z,25.77
2016-06-27T07:43:32.384Z,26.05
2016-06-27T07:44:32.424Z,26.06
2016-06-27T07:45:31.913Z,26.09
2016-06-27T07:46:32.483Z,25.92
2016-06-27T07:47:31.900Z,26.3
2016-06-27T07:48:31.925Z,26.29
2016-06-27T07:49:31.381Z,26.63
2016-06-27T07:50:31.388Z,26.89
2016-06-27T07:51:32.009Z,27.69
2016-06-27T07:52:32.042Z,27.75
2016-06-27T07:53:32.131Z,27.88
2016-06-27T07:54:32.116Z,27.7
2016-06-27T07:55:32.143Z,27.32
2016-06-27T07:56:32.779Z,27.96
2016-06-27T07:57:47.074Z,28.68
2016-06-27T07:58:32.842Z,29
2016-06-27T07:59:32.867Z,29.36
2016-06-27T08:00:31.674Z,29.27
2016-06-27T08:01:32.963Z,29.27
2016-06-27T08:02:32.978Z,29.52
2016-06-27T08:03:32.993Z,29.57
2016-06-27T08:04:33.025Z,29.46
2016-06-27T08:05:33.080Z,29.82
2016-06-27T08:06:33.100Z,30.58
2016-06-27T08:07:33.134Z,31.19
2016-06-27T08:08:31.936Z,31.47
2016-06-27T08:09:32.582Z,31.65
2016-06-27T08:10:33.210Z,31.16
2016-06-27T08:11:46.904Z,30.86
2016-06-27T08:12:32.662Z,30.95
2016-06-27T08:13:46.963Z,30.94
2016-06-27T08:14:46.995Z,30.26
2016-06-27T08:15:47.046Z,29.79
2016-06-27T08:16:47.055Z,30.11
2016-06-27T08:17:33.441Z,30.49
2016-06-27T08:18:32.266Z,30.53
2016-06-27T08:19:33.107Z,29.9
2016-06-27T08:20:32.919Z,29.33
2016-06-27T08:21:33.554Z,29.48
2016-06-27T08:22:33.623Z,29.71
2016-06-27T08:23:33.633Z,30.04
2016-06-27T08:24:33.648Z,30.55
2016-06-27T08:25:33.087Z,30.8
2016-06-27T08:26:33.122Z,30.94
2016-06-27T08:27:33.141Z,31.14
2016-06-27T08:28:33.790Z,30.51
2016-06-27T08:29:48.105Z,29.83
2016-06-27T08:30:48.139Z,30.05
2016-06-27T08:31:33.908Z,30.04
2016-06-27T08:32:32.703Z,30.32
2016-06-27T08:33:33.354Z,30.47
2016-06-27T08:34:32.761Z,30.62
2016-06-27T08:35:34.018Z,30.61
2016-06-27T08:36:34.045Z,30.76
2016-06-27T08:37:32.862Z,31.09
2016-06-27T08:38:33.536Z,31.35
2016-06-27T08:39:33.550Z,31.26
2016-06-27T08:40:34.170Z,31.29
2016-06-27T08:41:33.600Z,30.99
2016-06-27T08:42:33.027Z,29.94
2016-06-27T08:43:33.691Z,29.28
2016-06-27T08:44:48.578Z,29.04
2016-06-27T08:45:33.734Z,29.26
2016-06-27T08:46:34.381Z,29.26
2016-06-27T08:47:33.195Z,29.52
2016-06-27T08:48:33.830Z,29.45
2016-06-27T08:49:33.277Z,29.37
2016-06-27T08:50:34.499Z,29.42
2016-06-27T08:51:33.992Z,29.83
2016-06-27T08:52:33.954Z,29.48
2016-06-27T08:53:34.008Z,29.64
2016-06-27T08:54:33.405Z,30.16
2016-06-27T08:55:34.094Z,30.53
2016-06-27T08:56:33.475Z,30.02
2016-06-27T08:57:33.504Z,30.6
2016-06-27T08:58:34.784Z,30.69
2016-06-27T08:59:34.786Z,30.83
2016-06-27T09:00:34.250Z,31.2
2016-06-27T09:01:34.880Z,30.97
2016-06-27T09:02:34.906Z,31.56
2016-06-27T09:03:34.918Z,31.72
2016-06-27T09:04:48.610Z,32.14
2016-06-27T09:05:33.806Z,32.18
2016-06-27T09:06:35.025Z,32.18
2016-06-27T09:07:34.438Z,31.48
2016-06-27T09:09:34.509Z,31.34
2016-06-27T09:10:49.438Z,31.95
2016-06-27T09:11:34.580Z,32.35
2016-06-27T09:12:34.605Z,32.81
2016-06-27T09:13:34.031Z,32.94
2016-06-27T09:14:34.667Z,33.14
2016-06-27T09:15:34.713Z,32.52
2016-06-27T09:16:49.627Z,31.93
2016-06-27T09:17:34.167Z,31.78
2016-06-27T09:19:35.450Z,31.46
2016-06-27T09:20:34.867Z,31.26
2016-06-27T09:21:35.505Z,31.72
2016-06-27T09:22:34.950Z,31.73
2016-06-27T09:23:34.967Z,32.13
2016-06-27T09:24:35.006Z,32.37
2016-06-27T09:25:35.641Z,32.44
2016-06-27T09:26:35.061Z,32.26
2016-06-27T09:28:35.743Z,31.56
2016-06-27T09:29:35.771Z,30.88
2016-06-27T09:30:34.586Z,30.79
2016-06-27T09:31:35.252Z,30.79
2016-06-27T09:32:49.531Z,31.02
2016-06-27T09:33:35.295Z,30.82
2016-06-27T09:34:35.321Z,29.87
2016-06-27T09:35:35.957Z,29.3
2016-06-27T09:36:36.014Z,29.49
2016-06-27T09:37:36.043Z,29.58
2016-06-27T09:38:36.095Z,29.65
2016-06-27T09:39:35.478Z,29.55
2016-06-27T09:40:35.519Z,29.67
2016-06-27T09:41:34.933Z,29.55
2016-06-27T09:42:34.982Z,29.57
2016-06-27T09:43:35.607Z,29.52
2016-06-27T09:44:35.653Z,29.89
2016-06-27T09:45:35.668Z,30.37
2016-06-27T09:46:35.692Z,30.42
2016-06-27T09:47:35.727Z,31.01
2016-06-27T09:48:50.655Z,30.92
2016-06-27T09:49:35.804Z,31.23
2016-06-27T09:50:35.212Z,31.62
2016-06-27T09:51:35.249Z,31.73
2016-06-27T09:52:35.882Z,31.89
2016-06-27T09:53:36.525Z,32.01
2016-06-27T09:54:35.334Z,32.22
2016-06-27T09:55:36.600Z,32.89
2016-06-27T09:56:36.027Z,32.97
2016-06-27T09:57:36.066Z,33.38
2016-06-27T09:58:36.690Z,33.07
2016-06-27T09:59:36.158Z,32.33
2016-06-27T10:00:36.145Z,31.66
2016-06-27T10:01:36.173Z,31.56
2016-06-27T10:02:36.826Z,30.29
2016-06-27T10:03:36.242Z,29.92
2016-06-27T10:04:50.553Z,29.26
2016-06-27T10:05:36.911Z,29.16
2016-06-27T10:06:36.954Z,29.87
2016-06-27T10:07:36.986Z,30.6
2016-06-27T10:08:35.829Z,31.06
2016-06-27T10:09:36.418Z,31.1
2016-06-27T10:10:37.074Z,31.28
2016-06-27T10:11:37.109Z,31.47
2016-06-27T10:12:36.527Z,30.76
2016-06-27T10:13:35.943Z,30.02
2016-06-27T10:14:36.571Z,29.48
2016-06-27T10:15:36.634Z,29.79
2016-06-27T10:16:36.068Z,30.15
2016-06-27T10:17:36.707Z,29.76
2016-06-27T10:18:37.329Z,29.34
2016-06-27T10:19:51.042Z,28.62
2016-06-27T10:20:36.174Z,28.46
2016-06-27T10:21:36.188Z,28.81
2016-06-27T10:22:37.467Z,29.34
2016-06-27T10:23:36.267Z,29.53
2016-06-27T10:24:36.897Z,30.24
2016-06-27T10:25:36.933Z,30.65
2016-06-27T10:26:37.565Z,31.01
2016-06-27T10:27:36.996Z,31.46
2016-06-27T10:28:37.630Z,30.83
2016-06-27T10:29:37.052Z,30.43
2016-06-27T10:30:37.090Z,30.61
2016-06-27T10:31:37.114Z,30.64
2016-06-27T10:32:37.151Z,29.97
2016-06-27T10:33:37.206Z,29.42
2016-06-27T10:34:37.830Z,29.06
2016-06-27T10:35:37.251Z,28.22
2016-06-27T10:36:37.285Z,27.84
2016-06-27T10:37:37.923Z,27.67
2016-06-27T10:38:37.342Z,27.25
2016-06-27T10:39:37.384Z,27.65
2016-06-27T10:40:37.433Z,28.09
2016-06-27T10:41:37.451Z,28.24
2016-06-27T10:42:38.066Z,28.3
2016-06-27T10:44:36.914Z,28.33
2016-06-27T10:45:36.935Z,28.07
2016-06-27T10:46:36.988Z,28.06
2016-06-27T10:47:37.619Z,28.14
2016-06-27T10:48:37.041Z,27.65
2016-06-27T10:50:38.434Z,26.92
2016-06-27T10:51:52.614Z,27.02
2016-06-27T10:52:52.641Z,27.03
2016-06-27T10:53:38.424Z,26.94
2016-06-27T10:55:37.879Z,27.55
2016-06-27T10:57:37.918Z,27.39
2016-06-27T10:58:37.948Z,27.43
2016-06-27T10:59:37.363Z,27.37
2016-06-27T11:00:38.608Z,27.27
2016-06-27T11:01:38.654Z,27.43
2016-06-27T11:02:38.667Z,26.69
2016-06-27T11:03:38.094Z,26.88
2016-06-27T11:04:38.175Z,27.14
2016-06-27T11:05:37.545Z,27.34
2016-06-27T11:06:37.570Z,27.55
2016-06-27T11:07:53.103Z,27.65
2016-06-27T11:08:38.254Z,27.54
2016-06-27T11:09:38.279Z,27.72
2016-06-27T11:10:38.302Z,27.67
2016-06-27T11:11:38.334Z,27.84
2016-06-27T11:12:38.979Z,27.94
2016-06-27T11:13:37.806Z,28.07
2016-06-27T11:14:37.844Z,27.85
2016-06-27T11:15:38.460Z,27.93
2016-06-27T11:16:38.499Z,28.18
2016-06-27T11:17:39.154Z,28.44
2016-06-27T11:18:37.931Z,28.41
2016-06-27T11:19:39.195Z,28.49
2016-06-27T11:20:38.007Z,28.55
2016-06-27T11:21:52.944Z,28.83
2016-06-27T11:22:38.062Z,28.37
2016-06-27T11:23:53.576Z,27.72
2016-06-27T11:24:38.720Z,27.67
2016-06-27T11:25:38.760Z,27.66
2016-06-27T11:26:39.399Z,27.59
2016-06-27T11:27:38.843Z,27.65
2016-06-27T11:28:38.855Z,27.55
2016-06-27T11:29:53.153Z,27.44
2016-06-27T11:30:38.927Z,27.21
2016-06-27T11:31:38.951Z,26.99
2016-06-27T11:32:38.994Z,26.88
2016-06-27T11:33:53.276Z,26.6
2016-06-27T11:34:39.635Z,26.43
2016-06-27T11:35:39.060Z,26.29
2016-06-27T11:37:38.505Z,26.05
2016-06-27T11:38:39.746Z,26.2
2016-06-27T11:39:54.045Z,26.29
2016-06-27T11:40:39.221Z,26.54
2016-06-27T11:41:39.251Z,26.7
2016-06-27T11:42:39.888Z,27
2016-06-27T11:43:39.290Z,27.34
2016-06-27T11:44:39.946Z,27.6
2016-06-27T11:45:38.753Z,27.51
2016-06-27T11:47:39.414Z,27.03
2016-06-27T11:48:38.847Z,27.07
2016-06-27T11:49:39.472Z,27.1
2016-06-27T11:50:39.494Z,27.46
2016-06-27T11:51:40.129Z,27.63
2016-06-27T11:53:40.215Z,28.03
2016-06-27T11:54:53.883Z,27.66
2016-06-27T11:55:39.650Z,27.7
2016-06-27T11:56:39.667Z,27.59
2016-06-27T11:57:39.715Z,27.5
2016-06-27T11:58:39.129Z,27.34
2016-06-27T11:59:54.044Z,27.34
2016-06-27T12:00:40.417Z,27.22
2016-06-27T12:01:39.251Z,27.27
2016-06-27T12:02:39.863Z,27.27
2016-06-27T12:03:39.287Z,27.28
2016-06-27T12:04:39.299Z,27.17
2016-06-27T12:05:39.944Z,27.13
2016-06-27T12:06:54.851Z,27.22
2016-06-27T12:07:39.392Z,27.04
2016-06-27T12:08:40.076Z,27.18
2016-06-27T12:09:40.670Z,27.18
2016-06-27T12:10:39.483Z,27.34
2016-06-27T12:11:40.125Z,27.32
2016-06-27T12:12:39.538Z,27.29
2016-06-27T12:13:40.825Z,27.36
2016-06-27T12:14:40.822Z,27.19
2016-06-27T12:15:40.847Z,27.1
2016-06-27T12:16:39.681Z,27.36
2016-06-27T12:18:55.208Z,27.79
2016-06-27T12:19:54.628Z,27.78
2016-06-27T12:20:40.995Z,27.78
2016-06-27T12:21:55.290Z,27.74
2016-06-27T12:22:40.426Z,27.55
2016-06-27T12:23:39.855Z,27.46
2016-06-27T12:24:39.885Z,27.37
2016-06-27T12:25:40.546Z,27.44
2016-06-27T12:27:41.195Z,27.7
2016-06-27T12:28:40.849Z,27.75
2016-06-27T12:29:40.651Z,27.82
2016-06-27T12:30:40.723Z,27.97
2016-06-27T12:31:40.816Z,27.97
2016-06-27T12:32:40.144Z,27.84
2016-06-27T12:33:40.163Z,27.7
2016-06-27T12:34:40.181Z,27.67
2016-06-27T12:35:40.825Z,27.81
2016-06-27T12:36:41.071Z,27.97
2016-06-27T12:37:40.895Z,28.31
2016-06-27T12:38:55.791Z,28.37
2016-06-27T12:39:40.955Z,28.64
2016-06-27T12:40:40.981Z,28.74
2016-06-27T12:41:41.023Z,28.83
2016-06-27T12:42:55.936Z,28.83
2016-06-27T12:43:55.318Z,28.96
2016-06-27T12:45:41.111Z,28.4
2016-06-27T12:46:41.756Z,28.46
2016-06-27T12:47:41.806Z,27.97
2016-06-27T12:48:41.213Z,28
2016-06-27T12:49:41.284Z,27.77
2016-06-27T12:50:41.290Z,27.77
2016-06-27T12:51:41.284Z,28.09
2016-06-27T12:52:41.942Z,28.17
2016-06-27T12:53:41.667Z,28.51
2016-06-27T12:54:41.995Z,28
2016-06-27T12:55:41.404Z,28.14
2016-06-27T12:56:41.434Z,28.14
2016-06-27T12:57:42.083Z,28.41
2016-06-27T12:58:56.383Z,28.71
2016-06-27T13:00:40.951Z,28.81
2016-06-27T13:01:41.591Z,29.08
2016-06-27T13:02:41.624Z,29.31
2016-06-27T13:03:41.646Z,29.49
2016-06-27T13:04:42.287Z,29.55
2016-06-27T13:05:41.711Z,29.27
2016-06-27T13:06:42.364Z,28.73
2016-06-27T13:07:42.380Z,28.64
2016-06-27T13:08:42.398Z,28.37
2016-06-27T13:09:41.207Z,28
2016-06-27T13:10:41.857Z,27.49
2016-06-27T13:11:41.281Z,27.6
2016-06-27T13:12:41.935Z,27.41
2016-06-27T13:13:42.586Z,27.43
2016-06-27T13:14:56.850Z,27.41
2016-06-27T13:15:41.408Z,27.41
2016-06-27T13:16:41.427Z,27.57
2016-06-27T13:17:42.067Z,27.79
2016-06-27T13:18:42.110Z,28.11
2016-06-27T13:19:42.140Z,28.44
2016-06-27T13:20:42.159Z,28.39
2016-06-27T13:21:42.787Z,28.09
2016-06-27T13:22:42.215Z,27.57
2016-06-27T13:23:42.251Z,27.14
2016-06-27T13:24:42.269Z,27.1
2016-06-27T13:25:42.313Z,27.21
2016-06-27T13:26:42.343Z,27.27
2016-06-27T13:27:41.759Z,27.19
2016-06-27T13:28:42.996Z,27.43
2016-06-27T13:29:56.686Z,27.51
2016-06-27T13:30:43.059Z,27.69
2016-06-27T13:31:41.867Z,27.9
2016-06-27T13:32:56.771Z,27.84
2016-06-27T13:33:42.542Z,27.47
2016-06-27T13:34:42.561Z,27.36
2016-06-27T13:35:42.596Z,27.49
2016-06-27T13:36:42.625Z,27.67
2016-06-27T13:37:42.056Z,27.92
2016-06-27T13:38:43.298Z,28.03
2016-06-27T13:39:43.327Z,27.78
2016-06-27T13:41:42.156Z,27.66
2016-06-27T13:42:42.809Z,27.69
2016-06-27T13:43:43.454Z,27.54
2016-06-27T13:44:42.863Z,27.44